createdAt,value
2023-03-29T00:02:07.816Z,6.10
2023-03-29T00:04:35.231Z,6.20
2023-03-29T00:07:04.405Z,6.10
2023-03-29T00:09:33.407Z,6.10
2023-03-29T00:12:01.350Z,6.10
2023-03-29T00:14:30.925Z,6.10
2023-03-29T00:16:58.711Z,6.10
2023-03-29T00:19:25.898Z,6.10
2023-03-29T00:21:52.995Z,6.20
2023-03-29T00:24:21.635Z,6.10
2023-03-29T00:26:48.616Z,6.10
2023-03-29T00:29:16.085Z,6.00
2023-03-29T00:31:45.971Z,6.00
2023-03-29T00:34:12.951Z,6.00
2023-03-29T00:36:40.315Z,6.00
2023-03-29T00:39:07.358Z,6.10
2023-03-29T00:41:34.271Z,6.10
2023-03-29T00:44:03.664Z,6.10
2023-03-29T00:46:31.903Z,5.90
2023-03-29T00:49:08.774Z,6.00
2023-03-29T00:51:39.528Z,5.90
2023-03-29T00:54:08.484Z,5.90
2023-03-29T00:56:40.154Z,6.00
2023-03-29T00:59:13.757Z,5.90
2023-03-29T01:01:58.564Z,5.90
2023-03-29T01:04:25.498Z,5.90
2023-03-29T01:07:18.033Z,5.80
2023-03-29T01:09:50.921Z,5.80
2023-03-29T01:12:24.239Z,5.90
2023-03-29T01:14:56.520Z,5.90
2023-03-29T01:17:25.530Z,5.80
2023-03-29T01:20:08.929Z,5.80
2023-03-29T01:23:03.370Z,5.80
2023-03-29T01:25:43.031Z,5.80
2023-03-29T01:28:14.831Z,5.80
2023-03-29T01:31:01.865Z,5.80
2023-03-29T01:33:34.368Z,5.80
2023-03-29T01:36:22.162Z,5.80
2023-03-29T01:39:05.123Z,5.80
2023-03-29T01:41:40.722Z,5.80
2023-03-29T01:44:15.979Z,5.80
2023-03-29T01:46:48.246Z,5.70
2023-03-29T01:49:26.000Z,5.80
2023-03-29T01:52:03.833Z,5.80
2023-03-29T01:54:40.769Z,5.80
2023-03-29T01:57:10.492Z,5.80
2023-03-29T01:59:40.494Z,5.80
2023-03-29T02:02:12.960Z,5.80
2023-03-29T02:04:48.090Z,5.70
2023-03-29T02:07:17.431Z,5.70
2023-03-29T02:09:45.203Z,5.70
2023-03-29T02:12:13.733Z,5.70
2023-03-29T02:14:40.584Z,5.80
2023-03-29T02:17:25.335Z,5.70
2023-03-29T02:20:17.510Z,5.70
2023-03-29T02:22:49.890Z,5.80
2023-03-29T02:25:17.537Z,5.80
2023-03-29T02:27:45.435Z,5.80
2023-03-29T02:30:15.724Z,5.80
2023-03-29T02:32:49.136Z,5.80
2023-03-29T02:35:35.117Z,5.80
2023-03-29T02:38:09.071Z,5.80
2023-03-29T02:40:38.161Z,5.80
2023-03-29T02:43:07.722Z,5.80
2023-03-29T02:45:36.539Z,5.70
2023-03-29T02:48:08.962Z,5.70
2023-03-29T02:50:39.375Z,5.70
2023-03-29T02:53:14.143Z,5.80
2023-03-29T02:55:41.606Z,5.80
2023-03-29T02:58:08.632Z,5.70
2023-03-29T03:00:39.512Z,5.70
2023-03-29T03:03:11.779Z,5.70
2023-03-29T03:05:39.259Z,5.70
2023-03-29T03:08:07.421Z,5.80
2023-03-29T03:10:35.579Z,5.70
2023-03-29T03:13:03.289Z,5.70
2023-03-29T03:15:31.203Z,5.70
2023-03-29T03:17:58.154Z,5.70
2023-03-29T03:20:26.559Z,5.80
2023-03-29T03:22:53.374Z,5.70
2023-03-29T03:25:21.384Z,6.00
2023-03-29T03:27:49.722Z,5.70
2023-03-29T03:30:17.082Z,5.80
2023-03-29T03:32:44.892Z,5.70
2023-03-29T03:35:12.424Z,5.70
2023-03-29T03:37:40.121Z,5.70
2023-03-29T03:40:09.062Z,5.70
2023-03-29T03:42:35.883Z,5.70
2023-03-29T03:45:02.865Z,5.80
2023-03-29T03:47:30.754Z,5.80
2023-03-29T03:49:58.231Z,5.80
2023-03-29T03:52:25.366Z,5.80
2023-03-29T03:54:52.176Z,5.70
2023-03-29T03:57:19.018Z,5.80
2023-03-29T03:59:46.120Z,5.70
2023-03-29T04:02:12.943Z,5.70
2023-03-29T04:04:40.680Z,5.80
2023-03-29T04:07:08.302Z,5.80
2023-03-29T04:09:35.350Z,5.70
2023-03-29T04:12:02.149Z,5.80
2023-03-29T04:14:28.978Z,5.80
2023-03-29T04:16:55.987Z,5.80
2023-03-29T04:19:23.071Z,5.80
2023-03-29T04:21:51.486Z,5.80
2023-03-29T04:24:18.508Z,5.80
2023-03-29T04:26:45.389Z,5.80
2023-03-29T04:29:12.198Z,5.80
2023-03-29T04:31:39.058Z,5.80
2023-03-29T04:34:05.916Z,5.80
2023-03-29T04:36:33.025Z,5.80
2023-03-29T04:39:01.672Z,5.80
2023-03-29T04:41:29.071Z,5.80
2023-03-29T04:43:56.237Z,5.80
2023-03-29T04:46:26.486Z,5.80
2023-03-29T04:48:54.118Z,5.80
2023-03-29T04:51:22.406Z,5.80
2023-03-29T04:53:50.531Z,5.80
2023-03-29T04:56:17.682Z,5.90
2023-03-29T04:58:44.659Z,5.80
2023-03-29T05:01:11.675Z,5.90
2023-03-29T05:03:38.707Z,6.00
2023-03-29T05:06:07.571Z,5.90
2023-03-29T05:08:39.210Z,5.90
2023-03-29T05:11:11.622Z,6.00
2023-03-29T05:13:38.499Z,6.00
2023-03-29T05:16:06.858Z,6.00
2023-03-29T05:18:33.724Z,6.00
2023-03-29T05:21:00.947Z,6.10
2023-03-29T05:23:28.883Z,6.10
2023-03-29T05:25:55.752Z,6.00
2023-03-29T05:28:22.599Z,6.10
2023-03-29T05:31:01.161Z,6.00
2023-03-29T05:33:28.749Z,5.90
2023-03-29T05:36:04.029Z,6.10
2023-03-29T05:38:32.811Z,5.90
2023-03-29T05:41:00.578Z,5.90
2023-03-29T05:43:27.805Z,5.90
2023-03-29T05:45:56.359Z,5.90
2023-03-29T05:48:24.134Z,5.90
2023-03-29T05:50:53.475Z,5.90
2023-03-29T05:53:22.233Z,5.90
2023-03-29T05:55:50.062Z,5.90
2023-03-29T05:58:20.586Z,5.90
2023-03-29T06:00:50.109Z,5.80
2023-03-29T06:03:21.199Z,5.80
2023-03-29T06:05:55.157Z,5.90
2023-03-29T06:08:22.345Z,5.80
2023-03-29T06:10:50.280Z,5.80
2023-03-29T06:13:17.431Z,5.70
2023-03-29T06:15:45.108Z,5.80
2023-03-29T06:18:12.523Z,5.90
2023-03-29T06:20:39.394Z,5.80
2023-03-29T06:23:06.250Z,6.00
2023-03-29T06:25:34.241Z,5.80
2023-03-29T06:28:01.329Z,5.80
2023-03-29T06:30:28.756Z,5.80
2023-03-29T06:32:55.862Z,5.90
2023-03-29T06:35:22.796Z,5.90
2023-03-29T06:37:50.071Z,5.90
2023-03-29T06:40:19.221Z,6.00
2023-03-29T06:42:48.552Z,5.90
2023-03-29T06:45:16.298Z,5.90
2023-03-29T06:47:43.172Z,6.20
2023-03-29T06:50:11.791Z,6.00
2023-03-29T06:52:38.766Z,6.10
2023-03-29T06:55:07.650Z,6.10
2023-03-29T06:57:34.627Z,6.00
2023-03-29T07:00:01.660Z,6.00
2023-03-29T07:02:29.330Z,6.20
2023-03-29T07:04:56.298Z,6.10
2023-03-29T07:07:27.561Z,6.20
2023-03-29T07:09:55.664Z,6.20
2023-03-29T07:12:23.334Z,6.20
2023-03-29T07:14:50.290Z,6.20
2023-03-29T07:17:18.352Z,6.30
2023-03-29T07:19:45.156Z,6.30
2023-03-29T07:22:11.989Z,6.40
2023-03-29T07:24:38.825Z,6.40
2023-03-29T07:27:05.754Z,6.50
2023-03-29T07:29:33.253Z,6.50
2023-03-29T07:32:00.289Z,6.50
2023-03-29T07:34:27.226Z,6.60
2023-03-29T07:36:54.619Z,6.60
2023-03-29T07:39:22.457Z,6.70
2023-03-29T07:41:49.378Z,6.60
2023-03-29T07:44:19.246Z,6.60
2023-03-29T07:46:46.180Z,6.60
2023-03-29T07:49:13.029Z,6.60
2023-03-29T07:51:39.850Z,6.80
2023-03-29T07:54:07.797Z,6.80
2023-03-29T07:56:34.713Z,6.80
2023-03-29T07:59:02.160Z,6.70
2023-03-29T08:01:29.242Z,6.80
2023-03-29T08:03:57.581Z,6.80
2023-03-29T08:06:26.647Z,6.80
2023-03-29T08:08:53.446Z,6.90
2023-03-29T08:11:20.328Z,6.90
2023-03-29T08:13:47.158Z,7.00
2023-03-29T08:16:13.986Z,7.00
2023-03-29T08:18:41.504Z,7.00
2023-03-29T08:21:08.925Z,7.00
2023-03-29T08:23:36.038Z,7.00
2023-03-29T08:26:02.934Z,7.10
2023-03-29T08:28:29.828Z,7.10
2023-03-29T08:30:56.799Z,7.20
2023-03-29T08:33:23.690Z,7.20
2023-03-29T08:35:50.567Z,7.20
2023-03-29T08:38:17.417Z,7.20
2023-03-29T08:40:48.650Z,7.20
2023-03-29T08:43:47.237Z,7.30
2023-03-29T08:46:35.520Z,7.40
2023-03-29T08:49:05.592Z,7.40
2023-03-29T08:51:44.465Z,7.50
2023-03-29T08:54:26.852Z,7.60
2023-03-29T08:56:58.118Z,7.60
2023-03-29T08:59:29.810Z,7.70
2023-03-29T09:01:58.828Z,7.70
2023-03-29T09:04:33.080Z,7.80
2023-03-29T09:07:02.266Z,8.00
2023-03-29T09:09:33.914Z,8.10
2023-03-29T09:12:40.886Z,8.20
2023-03-29T09:15:19.824Z,8.30
2023-03-29T09:18:21.963Z,8.40
2023-03-29T09:20:57.157Z,8.60
2023-03-29T09:24:00.425Z,8.70
2023-03-29T09:26:52.823Z,8.80
2023-03-29T09:29:52.741Z,8.90
2023-03-29T09:32:33.023Z,9.00
2023-03-29T09:35:18.866Z,9.10
2023-03-29T09:37:47.885Z,9.20
2023-03-29T09:40:24.013Z,9.30
2023-03-29T09:42:55.910Z,9.40
2023-03-29T09:45:23.024Z,9.50
2023-03-29T09:47:58.175Z,9.60
2023-03-29T09:50:47.513Z,9.70
2023-03-29T09:53:19.985Z,9.80
2023-03-29T09:55:52.838Z,9.80
2023-03-29T09:58:31.703Z,9.90
2023-03-29T10:01:09.169Z,9.90
2023-03-29T10:03:37.121Z,9.80
2023-03-29T10:06:06.937Z,9.80
2023-03-29T10:08:47.766Z,9.70
2023-03-29T10:11:28.911Z,9.70
2023-03-29T10:14:00.531Z,9.80
2023-03-29T10:16:36.587Z,9.80
2023-03-29T10:19:20.468Z,9.80
2023-03-29T10:21:49.186Z,9.80
2023-03-29T10:24:21.489Z,9.80
2023-03-29T10:26:55.307Z,9.90
2023-03-29T10:29:24.652Z,10.00
2023-03-29T10:31:52.949Z,10.10
2023-03-29T10:34:25.521Z,10.10
2023-03-29T10:37:01.260Z,10.20
2023-03-29T10:39:33.536Z,10.30
2023-03-29T10:42:03.327Z,10.30
2023-03-29T10:44:36.236Z,10.30
2023-03-29T10:47:20.351Z,10.30
2023-03-29T10:49:53.820Z,10.40
2023-03-29T10:52:23.096Z,10.40
2023-03-29T10:54:52.895Z,10.40
2023-03-29T10:57:57.866Z,10.40
2023-03-29T11:00:51.837Z,10.50
2023-03-29T11:03:25.636Z,10.60
2023-03-29T11:06:07.014Z,10.70
2023-03-29T11:08:58.258Z,10.80
2023-03-29T11:11:41.024Z,11.00
2023-03-29T11:14:20.540Z,11.10
2023-03-29T11:17:00.179Z,11.30
2023-03-29T11:19:47.263Z,11.40
2023-03-29T11:22:14.728Z,11.40
2023-03-29T11:25:06.075Z,11.50
2023-03-29T11:27:53.528Z,11.60
2023-03-29T11:30:47.918Z,11.70
2023-03-29T11:33:20.833Z,11.80
2023-03-29T11:36:25.871Z,11.90
2023-03-29T11:39:09.525Z,12.00
2023-03-29T11:41:40.722Z,12.10
2023-03-29T11:44:17.654Z,12.20
2023-03-29T11:46:58.580Z,12.20
2023-03-29T11:49:32.313Z,12.20
2023-03-29T11:52:18.585Z,12.30
2023-03-29T11:54:56.337Z,12.40
2023-03-29T11:57:37.350Z,12.40
2023-03-29T12:00:20.625Z,12.50
2023-03-29T12:03:12.973Z,12.50
2023-03-29T12:05:50.991Z,12.60
2023-03-29T12:08:35.275Z,12.70
2023-03-29T12:11:18.817Z,12.80
2023-03-29T12:14:04.963Z,12.80
2023-03-29T12:16:39.943Z,12.70
2023-03-29T12:19:28.890Z,12.70
2023-03-29T12:21:57.989Z,13.00
2023-03-29T12:24:29.709Z,13.20
2023-03-29T12:27:23.029Z,13.30
2023-03-29T12:29:52.529Z,13.50
2023-03-29T12:32:40.815Z,13.80
2023-03-29T12:35:25.872Z,13.90
2023-03-29T12:38:20.908Z,13.70
2023-03-29T12:40:54.287Z,13.80
2023-03-29T12:43:28.527Z,13.90
2023-03-29T12:46:11.409Z,14.10
2023-03-29T12:48:40.624Z,14.00
2023-03-29T12:51:13.663Z,13.90
2023-03-29T12:53:55.627Z,13.90
2023-03-29T12:56:34.834Z,13.80
2023-03-29T12:59:25.718Z,13.60
2023-03-29T13:02:02.792Z,13.60
2023-03-29T13:04:39.258Z,13.40
2023-03-29T13:07:15.803Z,13.30
2023-03-29T13:10:04.105Z,13.30
2023-03-29T13:12:42.237Z,13.30
2023-03-29T13:15:16.653Z,13.40
2023-03-29T13:18:04.851Z,13.50
2023-03-29T13:21:09.952Z,13.60
2023-03-29T13:23:59.880Z,13.50
2023-03-29T13:26:35.322Z,13.50
2023-03-29T13:29:14.649Z,13.50
2023-03-29T13:31:51.663Z,13.50
2023-03-29T13:34:35.654Z,13.40
2023-03-29T13:37:40.053Z,13.40
2023-03-29T13:40:42.146Z,13.30
2023-03-29T13:43:20.836Z,13.40
2023-03-29T13:45:56.796Z,13.40
2023-03-29T13:48:50.363Z,13.30
2023-03-29T13:51:17.101Z,13.40
2023-03-29T13:54:27.439Z,13.30
2023-03-29T13:57:03.736Z,13.40
2023-03-29T13:59:52.184Z,13.30
2023-03-29T14:02:42.066Z,13.30
2023-03-29T14:05:13.830Z,13.40
2023-03-29T14:07:46.412Z,13.30
2023-03-29T14:10:17.960Z,13.40
2023-03-29T14:12:46.038Z,13.20
2023-03-29T14:15:22.911Z,13.50
2023-03-29T14:17:54.634Z,13.80
2023-03-29T14:20:21.592Z,14.10
2023-03-29T14:22:49.318Z,14.10
2023-03-29T14:25:22.626Z,13.90
2023-03-29T14:27:49.833Z,13.70
2023-03-29T14:30:23.171Z,13.60
2023-03-29T14:32:51.332Z,13.60
2023-03-29T14:35:18.537Z,13.50
2023-03-29T14:37:48.260Z,13.50
2023-03-29T14:40:20.295Z,13.40
2023-03-29T14:42:48.728Z,13.40
2023-03-29T14:45:17.468Z,13.30
2023-03-29T14:47:45.950Z,13.20
2023-03-29T14:50:28.574Z,13.10
2023-03-29T14:52:58.402Z,13.20
2023-03-29T14:55:26.227Z,13.30
2023-03-29T14:57:56.797Z,13.40
2023-03-29T15:00:28.434Z,13.50
2023-03-29T15:02:59.374Z,13.60
2023-03-29T15:05:26.478Z,13.80
2023-03-29T15:07:56.263Z,13.80
2023-03-29T15:10:23.689Z,13.80
2023-03-29T15:12:51.602Z,13.80
2023-03-29T15:15:18.804Z,13.70
2023-03-29T15:17:51.066Z,13.80
2023-03-29T15:20:23.297Z,13.80
2023-03-29T15:23:01.999Z,13.70
2023-03-29T15:25:34.627Z,13.70
2023-03-29T15:28:01.867Z,13.60
2023-03-29T15:30:39.293Z,13.50
2023-03-29T15:33:21.503Z,13.50
2023-03-29T15:35:53.744Z,13.40
2023-03-29T15:38:25.407Z,13.30
2023-03-29T15:41:01.371Z,13.20
2023-03-29T15:43:28.347Z,13.20
2023-03-29T15:45:55.403Z,13.10
2023-03-29T15:48:28.500Z,13.00
2023-03-29T15:50:55.270Z,13.00
2023-03-29T15:53:24.912Z,12.90
2023-03-29T15:55:56.865Z,12.90
2023-03-29T15:58:29.261Z,12.90
2023-03-29T16:12:41.783Z,12.90
2023-03-29T16:15:24.463Z,12.80
2023-03-29T16:17:54.383Z,12.70
2023-03-29T16:20:21.549Z,12.70
2023-03-29T16:22:49.125Z,12.60
2023-03-29T16:25:18.526Z,12.60
2023-03-29T16:27:47.035Z,12.50
2023-03-29T16:30:14.270Z,12.50
2023-03-29T16:32:43.649Z,12.40
2023-03-29T16:35:25.198Z,12.40
2023-03-29T16:37:52.039Z,12.40
2023-03-29T16:40:21.027Z,12.30
2023-03-29T16:42:48.299Z,12.30
2023-03-29T16:45:15.797Z,12.20
2023-03-29T16:47:45.987Z,12.20
2023-03-29T16:50:19.775Z,12.10
2023-03-29T16:52:48.506Z,12.20
2023-03-29T16:55:18.941Z,12.10
2023-03-29T16:57:47.456Z,12.10
2023-03-29T17:00:16.441Z,12.10
2023-03-29T17:02:44.199Z,12.00
2023-03-29T17:05:14.682Z,12.00
2023-03-29T17:07:41.915Z,11.90
2023-03-29T17:10:10.695Z,11.90
2023-03-29T17:12:37.830Z,11.80
2023-03-29T17:15:07.631Z,11.80
2023-03-29T17:17:35.081Z,11.80
2023-03-29T17:20:02.125Z,11.70
2023-03-29T17:22:29.060Z,11.70
2023-03-29T17:24:55.930Z,11.70
2023-03-29T17:27:22.859Z,11.70
2023-03-29T17:29:49.944Z,11.70
2023-03-29T17:32:17.009Z,11.60
2023-03-29T17:34:43.863Z,11.60
2023-03-29T17:37:10.790Z,11.60
2023-03-29T17:39:37.941Z,11.60
2023-03-29T17:42:05.599Z,11.50
2023-03-29T17:44:33.431Z,11.50
2023-03-29T17:47:01.150Z,11.50
2023-03-29T17:49:28.367Z,11.50
2023-03-29T17:51:55.352Z,11.50
2023-03-29T17:54:23.339Z,11.50
2023-03-29T17:56:50.595Z,11.40
2023-03-29T17:59:18.074Z,11.50
2023-03-29T18:01:44.969Z,11.40
2023-03-29T18:04:12.169Z,11.40
2023-03-29T18:06:39.221Z,11.30
2023-03-29T18:09:06.146Z,11.30
2023-03-29T18:11:33.254Z,11.30
2023-03-29T18:14:01.077Z,11.30
2023-03-29T18:16:28.160Z,11.20
2023-03-29T18:18:55.046Z,11.20
2023-03-29T18:21:22.258Z,11.20
2023-03-29T18:23:49.901Z,11.20
2023-03-29T18:26:17.416Z,11.20
2023-03-29T18:28:48.361Z,11.20
2023-03-29T18:31:16.318Z,11.20
2023-03-29T18:33:43.432Z,11.10
2023-03-29T18:36:13.221Z,11.10
2023-03-29T18:38:43.266Z,11.10
2023-03-29T18:41:12.458Z,11.10
2023-03-29T18:43:40.562Z,11.10
2023-03-29T18:46:08.134Z,11.20
2023-03-29T18:48:42.268Z,11.10
2023-03-29T18:51:13.703Z,11.10
2023-03-29T18:53:42.957Z,11.10
2023-03-29T18:56:10.124Z,11.10
2023-03-29T18:58:37.033Z,11.10
2023-03-29T19:01:05.924Z,11.10
2023-03-29T19:03:36.938Z,11.10
2023-03-29T19:06:04.331Z,11.10
2023-03-29T19:08:34.041Z,11.10
2023-03-29T19:11:05.876Z,11.10
2023-03-29T19:13:32.973Z,11.10
2023-03-29T19:15:59.920Z,11.10
2023-03-29T19:18:26.802Z,11.10
2023-03-29T19:20:56.403Z,11.10
2023-03-29T19:23:27.303Z,11.10
2023-03-29T19:25:56.046Z,11.10
2023-03-29T19:28:23.840Z,11.10
2023-03-29T19:30:50.780Z,11.10
2023-03-29T19:33:18.405Z,11.10
2023-03-29T19:35:45.952Z,11.00
2023-03-29T19:38:13.323Z,11.00
2023-03-29T19:40:42.666Z,11.00
2023-03-29T19:43:09.513Z,11.10
2023-03-29T19:45:36.444Z,11.00
2023-03-29T19:48:03.809Z,11.00
2023-03-29T19:50:32.848Z,10.90
2023-03-29T19:53:00.821Z,10.90
2023-03-29T19:55:28.431Z,10.90
2023-03-29T19:57:55.391Z,10.90
2023-03-29T20:00:24.995Z,10.90
2023-03-29T20:02:52.911Z,10.90
2023-03-29T20:05:22.862Z,10.90
2023-03-29T20:07:50.381Z,10.80
2023-03-29T20:10:17.319Z,10.80
2023-03-29T20:12:44.132Z,10.80
2023-03-29T20:15:15.646Z,10.80
2023-03-29T20:17:42.607Z,10.80
2023-03-29T20:20:14.048Z,10.80
2023-03-29T20:22:45.177Z,10.70
2023-03-29T20:25:12.165Z,10.70
2023-03-29T20:27:40.918Z,10.70
2023-03-29T20:30:09.458Z,10.70
2023-03-29T20:32:36.444Z,10.70
2023-03-29T20:35:04.165Z,10.70
2023-03-29T20:37:31.659Z,10.70
2023-03-29T20:39:59.357Z,10.70
2023-03-29T20:42:29.614Z,10.70
2023-03-29T20:44:56.531Z,10.70
2023-03-29T20:47:23.753Z,10.60
2023-03-29T20:49:54.527Z,10.70
2023-03-29T20:52:23.179Z,10.60
2023-03-29T20:54:50.529Z,10.60
2023-03-29T20:57:19.952Z,10.60
2023-03-29T20:59:50.417Z,10.60
2023-03-29T21:02:21.055Z,10.60
2023-03-29T21:04:52.499Z,10.60
2023-03-29T21:07:20.081Z,10.60
2023-03-29T21:09:50.397Z,10.50
2023-03-29T21:12:17.522Z,10.50
2023-03-29T21:14:44.801Z,10.50
2023-03-29T21:17:11.905Z,10.50
2023-03-29T21:19:39.545Z,10.50
2023-03-29T21:22:06.847Z,10.40
2023-03-29T21:24:34.092Z,10.40
2023-03-29T21:27:00.979Z,10.40
2023-03-29T21:29:28.157Z,10.40
2023-03-29T21:31:55.515Z,10.40
2023-03-29T21:34:22.497Z,10.40
2023-03-29T21:36:49.754Z,10.40
2023-03-29T21:39:17.246Z,10.40
2023-03-29T21:41:44.166Z,10.40
2023-03-29T21:44:11.273Z,10.40
2023-03-29T21:46:38.212Z,10.30
2023-03-29T21:49:05.089Z,10.30
2023-03-29T21:51:32.679Z,10.30
2023-03-29T21:53:59.524Z,10.20
2023-03-29T21:56:26.534Z,10.30
2023-03-29T21:58:53.518Z,10.30
2023-03-29T22:01:20.764Z,10.30
2023-03-29T22:03:47.683Z,10.20
2023-03-29T22:06:14.938Z,10.30
2023-03-29T22:08:43.423Z,10.30
2023-03-29T22:11:14.365Z,10.30
2023-03-29T22:13:42.679Z,10.30
2023-03-29T22:16:14.014Z,10.30
2023-03-29T22:18:43.901Z,10.30
2023-03-29T22:21:15.901Z,10.30
2023-03-29T22:23:44.204Z,10.20
2023-03-29T22:26:12.927Z,10.30
2023-03-29T22:28:40.897Z,10.30
2023-03-29T22:31:13.085Z,10.30
2023-03-29T22:33:40.582Z,10.30
2023-03-29T22:36:22.707Z,10.40
2023-03-29T22:38:51.202Z,10.40
2023-03-29T22:41:19.401Z,10.40
2023-03-29T22:43:46.325Z,10.40
2023-03-29T22:46:14.301Z,10.50
2023-03-29T22:48:41.540Z,10.50
2023-03-29T22:51:08.500Z,10.50
2023-03-29T22:53:35.418Z,10.60
2023-03-29T22:56:02.415Z,10.60
2023-03-29T22:58:29.665Z,10.60
2023-03-29T23:00:57.681Z,10.60
2023-03-29T23:03:24.667Z,10.60
2023-03-29T23:05:54.957Z,10.60
2023-03-29T23:08:23.003Z,10.60
2023-03-29T23:10:49.966Z,10.60
2023-03-29T23:13:24.228Z,10.60
2023-03-29T23:15:52.894Z,10.50
2023-03-29T23:18:22.033Z,10.50
2023-03-29T23:20:50.250Z,10.50
2023-03-29T23:23:18.996Z,10.50
2023-03-29T23:25:47.558Z,10.60
2023-03-29T23:28:16.866Z,10.50
2023-03-29T23:30:43.813Z,10.50
2023-03-29T23:33:11.803Z,10.50
2023-03-29T23:35:38.720Z,10.50
2023-03-29T23:38:05.586Z,10.50
2023-03-29T23:40:33.210Z,10.50
2023-03-29T23:43:00.137Z,10.50
2023-03-29T23:45:30.231Z,10.50
2023-03-29T23:47:57.400Z,10.50
2023-03-29T23:50:24.936Z,10.50
2023-03-29T23:52:51.789Z,10.60
2023-03-29T23:55:19.467Z,10.60
2023-03-29T23:57:46.452Z,10.60
